Time;durP1;ratioP1;P1;durP2;ratioP2;P2;SDS_P1;SDS_P2;PMS_P1;PMS_P2;Temp;Humidity;BMP_temperature;BMP_pressure;BME280_temperature;BME280_humidity;BME280_pressure;Samples;Min_cycle;Max_cycle;Signal;HPM_P1;HPM_P2
2021/12/19 00:00:10;;;;;;;9.13;5.58;;;;;;;1.33;93.15;99100.30;1716397;82;21525;-77
2021/12/19 00:02:48;;;;;;;7.50;5.75;;;;;;;1.37;93.35;99100.26;1721112;82;21173;-77
2021/12/19 00:10:38;;;;;;;8.28;6.47;;;;;;;1.48;93.18;99087.74;1716030;82;21080;-77
2021/12/19 00:13:06;;;;;;;7.65;6.05;;;;;;;1.51;93.09;99093.69;1719442;82;21028;-77
2021/12/19 00:15:33;;;;;;;6.53;5.83;;;;;;;1.53;92.97;99090.69;1708473;83;21566;-77
2021/12/19 00:18:00;;;;;;;7.15;6.15;;;;;;;1.53;92.90;99084.70;1718828;83;21312;-77
2021/12/19 00:20:27;;;;;;;7.65;6.30;;;;;;;1.52;92.89;99081.73;1717139;82;20999;-77
2021/12/19 00:22:53;;;;;;;6.78;5.80;;;;;;;1.51;93.03;99082.59;1692280;83;21022;-78
2021/12/19 00:25:20;;;;;;;7.70;5.62;;;;;;;1.53;93.00;99077.02;1689353;83;21062;-77
2021/12/19 00:27:46;;;;;;;8.68;6.65;;;;;;;1.54;92.89;99074.88;1716399;83;21522;-78
2021/12/19 00:30:13;;;;;;;6.78;5.47;;;;;;;1.55;92.94;99075.29;1693761;83;21037;-77
2021/12/19 00:32:40;;;;;;;7.45;5.65;;;;;;;1.57;92.77;99069.72;1723665;82;21068;-77
2021/12/19 00:35:07;;;;;;;7.70;5.53;;;;;;;1.54;92.69;99062.06;1685102;83;21022;-77
2021/12/19 00:37:35;;;;;;;7.70;5.58;;;;;;;1.50;92.79;99052.70;1693791;83;21108;-77
2021/12/19 00:40:04;;;;;;;6.65;5.53;;;;;;;1.48;92.71;99045.46;1719240;82;21184;-78
2021/12/19 00:42:34;;;;;;;7.97;5.85;;;;;;;1.45;92.73;99032.68;1715444;83;20958;-78
2021/12/19 00:45:16;;;;;;;8.18;6.45;;;;;;;1.42;92.72;99034.84;1693658;83;21485;-77
2021/12/19 00:47:36;;;;;;;8.30;6.65;;;;;;;1.37;92.96;99019.98;1708072;82;21511;-77
2021/12/19 00:50:02;;;;;;;8.33;6.62;;;;;;;1.35;92.94;99016.15;1698425;83;21478;-78
2021/12/19 00:52:29;;;;;;;7.30;5.78;;;;;;;1.34;93.01;99013.17;1707209;83;21145;-78
2021/12/19 00:54:55;;;;;;;8.08;6.15;;;;;;;1.34;92.99;99018.30;1710921;83;21061;-77
2021/12/19 00:57:22;;;;;;;7.87;6.10;;;;;;;1.36;92.96;99023.41;1714936;83;21083;-78
2021/12/19 00:59:49;;;;;;;9.15;7.22;;;;;;;1.34;92.89;99012.32;1722647;82;20961;-77
2021/12/19 01:02:16;;;;;;;7.17;5.97;;;;;;;1.32;92.96;99001.23;1694237;83;21037;-77
2021/12/19 01:04:42;;;;;;;7.12;6.42;;;;;;;1.33;92.89;99011.91;1717923;83;21551;-77
2021/12/19 01:07:09;;;;;;;6.87;5.80;;;;;;;1.33;92.94;99001.66;1688035;83;21577;-77
2021/12/19 01:09:36;;;;;;;7.33;6.03;;;;;;;1.38;92.95;98994.34;1695931;83;21426;-77
2021/12/19 01:12:03;;;;;;;7.92;6.45;;;;;;;1.43;92.70;98988.28;1690135;83;21493;-78
2021/12/19 01:14:30;;;;;;;8.35;7.17;;;;;;;1.42;92.75;98984.88;1681839;84;21080;-78
2021/12/19 01:16:57;;;;;;;8.83;6.90;;;;;;;1.44;92.68;98983.58;1716145;82;20993;-78
2021/12/19 01:19:25;;;;;;;8.15;7.17;;;;;;;1.44;92.62;98974.61;1720096;83;20942;-77
2021/12/19 01:21:51;;;;;;;8.85;7.17;;;;;;;1.42;92.61;98968.22;1715026;83;20969;-77
2021/12/19 01:24:17;;;;;;;7.20;6.50;;;;;;;1.45;92.54;98962.20;1713513;83;21081;-77
2021/12/19 01:26:44;;;;;;;8.10;6.80;;;;;;;1.43;92.51;98959.66;1716086;83;21080;-78
2021/12/19 01:29:11;;;;;;;8.58;6.67;;;;;;;1.40;92.59;98953.29;1679346;83;21151;-78
2021/12/19 01:31:38;;;;;;;8.50;7.15;;;;;;;1.40;92.59;98951.20;1719417;82;20941;-77
2021/12/19 01:34:06;;;;;;;8.90;7.12;;;;;;;1.39;92.63;98936.25;1719977;82;21576;-77
2021/12/19 01:36:32;;;;;;;8.23;6.30;;;;;;;1.41;92.55;98926.80;1694297;82;21053;-77
2021/12/19 01:38:59;;;;;;;8.38;7.15;;;;;;;1.44;92.59;98931.05;1718953;82;20953;-77
2021/12/19 01:41:26;;;;;;;8.15;7.35;;;;;;;1.44;92.58;98925.48;1717925;83;21031;-77
2021/12/19 01:43:53;;;;;;;8.05;7.25;;;;;;;1.47;92.59;98920.75;1724566;82;21626;-78
2021/12/19 01:46:20;;;;;;;8.83;7.45;;;;;;;1.47;92.43;98913.06;1723827;82;21426;-77
2021/12/19 01:48:46;;;;;;;9.43;7.92;;;;;;;1.47;92.58;98911.79;1709261;83;21179;-77
2021/12/19 01:51:13;;;;;;;7.58;6.78;;;;;;;1.48;92.47;98906.64;1713569;82;21102;-77
2021/12/19 01:53:39;;;;;;;9.03;7.17;;;;;;;1.45;92.62;98907.11;1682238;83;20991;-77
2021/12/19 01:56:07;;;;;;;8.10;7.03;;;;;;;1.38;92.85;98914.06;1715136;83;21076;-77
2021/12/19 01:58:35;;;;;;;8.70;7.30;;;;;;;1.34;93.08;98918.80;1712862;82;21414;-77
2021/12/19 02:01:02;;;;;;;8.43;6.85;;;;;;;1.32;93.29;98908.58;1683389;83;20990;-77
2021/12/19 02:03:30;;;;;;;7.42;6.70;;;;;;;1.31;93.44;98909.88;1721684;82;21005;-77
2021/12/19 02:05:56;;;;;;;8.43;7.12;;;;;;;1.31;93.61;98901.75;1719961;82;21539;-77
2021/12/19 02:08:24;;;;;;;9.40;7.47;;;;;;;1.32;93.61;98896.20;1723737;82;21148;-77
2021/12/19 02:10:50;;;;;;;10.18;8.35;;;;;;;1.30;93.65;98891.09;1714739;83;21082;-77
2021/12/19 02:13:19;;;;;;;7.72;6.95;;;;;;;1.31;93.67;98890.66;1712250;82;20998;-77
2021/12/19 02:15:46;;;;;;;7.33;6.47;;;;;;;1.31;93.67;98890.66;1712791;83;20994;-77
2021/12/19 02:18:16;;;;;;;9.85;7.33;;;;;;;1.33;93.68;98890.20;1712945;82;21175;-78
2021/12/19 02:20:50;;;;;;;8.05;7.25;;;;;;;1.33;93.71;98878.68;1712292;83;21037;-77
2021/12/19 02:23:21;;;;;;;9.50;7.45;;;;;;;1.36;93.79;98873.08;1710429;82;20994;-77
2021/12/19 02:25:48;;;;;;;8.58;7.58;;;;;;;1.37;93.59;98868.81;1688164;83;21125;-77
2021/12/19 02:28:15;;;;;;;7.92;7.12;;;;;;;1.37;93.49;98852.16;1710268;83;20954;-78
2021/12/19 02:30:42;;;;;;;7.80;6.75;;;;;;;1.36;93.37;98845.33;1708413;82;21537;-78
2021/12/19 02:33:13;;;;;;;7.50;6.78;;;;;;;1.34;93.50;98841.94;1710564;83;21056;-77
2021/12/19 02:35:41;;;;;;;8.15;7.20;;;;;;;1.36;93.62;98838.50;1690489;83;21136;-78
2021/12/19 02:38:31;;;;;;;7.40;6.70;;;;;;;1.35;93.53;98823.14;1692726;83;21014;-77
2021/12/19 02:48:51;;;;;;;7.00;6.30;;;;;;;1.33;93.97;98782.17;1693200;83;20949;-78
2021/12/19 02:51:17;;;;;;;8.28;7.30;;;;;;;1.33;93.91;98783.45;1722600;83;20961;-77
2021/12/19 02:53:45;;;;;;;8.48;6.30;;;;;;;1.33;93.79;98769.80;1719635;83;21001;-78
2021/12/19 02:56:12;;;;;;;6.85;6.15;;;;;;;1.31;93.88;98778.78;1717114;82;21142;-78
2021/12/19 02:58:41;;;;;;;7.40;6.70;;;;;;;1.33;93.94;98771.92;1717022;82;20978;-78
2021/12/19 03:01:16;;;;;;;7.37;6.47;;;;;;;1.34;93.97;98767.21;1715038;83;20946;-77
2021/12/19 03:03:43;;;;;;;7.55;6.65;;;;;;;1.36;93.72;98764.19;1719400;83;21029;-78
2021/12/19 03:06:11;;;;;;;6.55;5.85;;;;;;;1.36;93.72;98753.95;1644706;85;21497;-77
2021/12/19 03:08:44;;;;;;;6.70;6.00;;;;;;;1.39;93.71;98760.74;1640211;85;21421;-78
2021/12/19 03:19:17;;;;;;;7.35;5.95;;;;;;;1.44;93.37;98733.30;1717702;82;20994;-78
2021/12/19 03:21:44;;;;;;;6.17;5.58;;;;;;;1.47;93.38;98728.56;1710623;82;21126;-77
2021/12/19 03:24:10;;;;;;;7.20;5.92;;;;;;;1.47;93.29;98723.44;1711275;82;21039;-77
2021/12/19 03:26:37;;;;;;;6.42;5.75;;;;;;;1.46;93.33;98716.62;1711842;83;21033;-78
2021/12/19 03:29:05;;;;;;;6.28;5.67;;;;;;;1.46;93.20;98708.50;1713797;82;21041;-77
2021/12/19 03:31:32;;;;;;;5.33;4.83;;;;;;;1.47;93.29;98700.38;1687020;83;21548;-78
2021/12/19 03:33:59;;;;;;;6.67;5.97;;;;;;;1.47;93.36;98696.10;1691731;83;20950;-78
2021/12/19 03:36:27;;;;;;;6.45;5.85;;;;;;;1.48;93.38;98696.95;1721179;83;21194;-77
2021/12/19 03:38:58;;;;;;;6.25;5.37;;;;;;;1.48;93.40;98693.95;1691398;83;21102;-77
2021/12/19 03:41:26;;;;;;;5.67;5.15;;;;;;;1.50;93.35;98688.80;1712550;83;21485;-77
2021/12/19 03:43:51;;;;;;;6.10;5.42;;;;;;;1.51;93.36;98685.37;1714135;83;21064;-77
2021/12/19 03:46:18;;;;;;;6.10;5.50;;;;;;;1.50;93.44;98678.55;1724853;81;21116;-77
2021/12/19 03:48:44;;;;;;;6.87;6.17;;;;;;;1.47;93.57;98664.51;1690211;83;21038;-77
2021/12/19 03:51:11;;;;;;;7.10;6.10;;;;;;;1.48;93.95;98669.61;1685218;84;21078;-77
2021/12/19 03:53:37;;;;;;;5.28;4.78;;;;;;;1.52;94.12;98672.53;1717447;83;21001;-77
2021/12/19 03:56:04;;;;;;;5.95;5.35;;;;;;;1.55;94.21;98662.66;1699706;84;20999;-77
2021/12/19 03:58:32;;;;;;;5.95;5.35;;;;;;;1.56;94.41;98654.11;1707482;83;21553;-77
2021/12/19 04:01:00;;;;;;;6.22;5.20;;;;;;;1.56;94.50;98665.20;1718458;83;21390;-77
2021/12/19 04:03:29;;;;;;;7.42;5.40;;;;;;;1.54;94.72;98650.72;1711736;83;21078;-77
2021/12/19 04:05:56;;;;;;;5.40;4.90;;;;;;;1.53;94.94;98648.59;1716945;83;20993;-77
2021/12/19 04:08:24;;;;;;;6.50;5.90;;;;;;;1.56;94.94;98642.57;1707221;83;21006;-77
2021/12/19 04:10:52;;;;;;;6.17;5.58;;;;;;;1.56;94.92;98641.29;1683623;83;21043;-77
2021/12/19 04:13:20;;;;;;;6.15;5.50;;;;;;;1.59;94.99;98641.23;1720232;82;20994;-77
2021/12/19 04:15:48;;;;;;;6.08;5.35;;;;;;;1.60;94.91;98636.52;1684546;83;20969;-77
2021/12/19 04:18:16;;;;;;;5.15;4.65;;;;;;;1.60;94.85;98632.68;1707526;83;21052;-77
2021/12/19 04:20:42;;;;;;;6.30;4.65;;;;;;;1.60;94.77;98633.96;1716189;82;21100;-77
2021/12/19 04:23:10;;;;;;;5.62;5.12;;;;;;;1.59;94.74;98624.58;1717299;82;21025;-77
2021/12/19 04:25:38;;;;;;;6.55;5.10;;;;;;;1.58;94.79;98619.89;1721775;82;20957;-77
2021/12/19 04:28:04;;;;;;;5.08;4.58;;;;;;;1.61;94.98;98618.52;1711471;82;21131;-77
2021/12/19 04:30:31;;;;;;;5.05;4.42;;;;;;;1.65;94.84;98609.91;1708814;83;21033;-77
2021/12/19 04:33:02;;;;;;;6.22;5.17;;;;;;;1.67;94.67;98603.47;1705345;83;21108;-77
2021/12/19 04:35:31;;;;;;;6.03;5.42;;;;;;;1.68;94.65;98597.47;1718077;82;22090;-77
2021/12/19 04:53:48;;;;;;;5.72;5.12;;;;;;;1.66;94.84;98556.92;1717726;82;21529;-77
2021/12/19 05:04:10;;;;;;;5.42;4.92;;;;;;;1.73;94.91;98534.99;1721664;83;20939;-77
2021/12/19 05:14:38;;;;;;;7.08;5.45;;;;;;;1.77;94.87;98521.67;1715650;83;21541;-77
2021/12/19 05:17:08;;;;;;;6.65;5.28;;;;;;;1.75;94.98;98513.61;1719118;82;21394;-77
2021/12/19 05:19:45;;;;;;;6.00;5.30;;;;;;;1.75;95.08;98500.35;1689595;83;21089;-77
2021/12/19 05:22:02;;;;;;;6.40;5.40;;;;;;;1.75;95.13;98499.07;1711289;82;21556;-77
2021/12/19 05:27:05;;;;;;;6.78;6.00;;;;;;;1.79;95.18;98488.32;1715710;83;21769;-78
2021/12/19 05:29:32;;;;;;;6.92;5.80;;;;;;;1.81;95.14;98492.95;1715948;83;21525;-77
2021/12/19 05:31:59;;;;;;;7.55;6.03;;;;;;;1.80;95.17;98493.38;1713194;82;21104;-77
2021/12/19 05:34:27;;;;;;;6.55;5.40;;;;;;;1.78;95.21;98491.32;1717441;82;21031;-77
2021/12/19 05:45:13;;;;;;;6.78;6.08;;;;;;;1.80;95.49;98449.80;1721782;82;20962;-77
2021/12/19 05:47:43;;;;;;;6.58;5.42;;;;;;;1.80;95.48;98449.80;1676314;84;21086;-77
2021/12/19 05:50:10;;;;;;;9.98;6.20;;;;;;;1.79;95.58;98446.02;1715950;82;20949;-78
2021/12/19 05:52:37;;;;;;;7.12;6.10;;;;;;;1.78;95.77;98434.92;1722694;82;21119;-78
2021/12/19 05:55:05;;;;;;;8.40;6.62;;;;;;;1.80;95.80;98436.98;1718850;83;21048;-78
2021/12/19 05:57:32;;;;;;;9.73;7.58;;;;;;;1.82;95.81;98430.55;1722909;83;21010;-78
2021/12/19 05:59:59;;;;;;;6.65;5.87;;;;;;;1.82;95.79;98430.55;1720299;82;21048;-77
2021/12/19 06:02:26;;;;;;;8.43;6.75;;;;;;;1.83;95.82;98436.08;1719577;82;20945;-78
2021/12/19 06:04:52;;;;;;;9.03;6.47;;;;;;;1.83;95.85;98435.63;1721297;82;21518;-78
2021/12/19 06:07:19;;;;;;;8.13;6.47;;;;;;;1.83;96.07;98426.66;1717664;83;20978;-78
2021/12/19 06:09:45;;;;;;;7.08;5.62;;;;;;;1.85;95.99;98418.50;1691223;83;20949;-78
2021/12/19 06:12:12;;;;;;;7.58;6.03;;;;;;;1.85;96.25;98417.66;1718761;82;21008;-78
2021/12/19 06:14:40;;;;;;;8.70;6.45;;;;;;;1.86;96.47;98414.22;1713689;82;21086;-77
2021/12/19 06:17:06;;;;;;;7.42;6.40;;;;;;;1.87;96.60;98406.93;1719560;82;22188;-78
2021/12/19 06:19:36;;;;;;;8.45;6.90;;;;;;;1.89;96.70;98409.02;1710837;83;21565;-77
2021/12/19 06:22:05;;;;;;;7.67;6.53;;;;;;;1.88;96.80;98406.05;1689936;83;21038;-77
2021/12/19 06:24:32;;;;;;;8.33;6.45;;;;;;;1.85;96.96;98404.40;1676806;83;21058;-78
2021/12/19 06:27:00;;;;;;;7.62;6.20;;;;;;;1.82;97.06;98397.21;1714252;83;21580;-77
2021/12/19 06:29:28;;;;;;;6.78;6.03;;;;;;;1.78;97.40;98402.03;1693244;82;21173;-78
2021/12/19 06:31:55;;;;;;;7.72;6.10;;;;;;;1.74;97.68;98393.56;1712919;83;20978;-78
2021/12/19 06:34:22;;;;;;;6.67;5.92;;;;;;;1.71;97.94;98389.34;1687803;83;20998;-78
2021/12/19 06:36:51;;;;;;;7.17;5.80;;;;;;;1.70;98.22;98395.79;1717323;82;21014;-78
2021/12/19 06:39:17;;;;;;;7.37;6.03;;;;;;;1.70;98.59;98389.38;1702008;82;21545;-78
2021/12/19 06:41:43;;;;;;;7.75;6.05;;;;;;;1.70;98.73;98376.56;1717602;82;21635;-77
2021/12/19 06:44:09;;;;;;;8.75;5.37;;;;;;;1.71;98.96;98370.13;1711208;82;20967;-78
2021/12/19 06:46:36;;;;;;;6.60;5.15;;;;;;;1.70;99.05;98356.91;1716646;82;20966;-78
2021/12/19 06:49:02;;;;;;;8.03;6.00;;;;;;;1.71;99.19;98353.91;1712435;83;21021;-78
2021/12/19 06:51:31;;;;;;;6.83;5.40;;;;;;;1.71;99.31;98344.93;1718096;83;21465;-77
2021/12/19 06:53:58;;;;;;;7.20;4.87;;;;;;;1.68;99.44;98350.97;1685217;83;21124;-78
2021/12/19 06:56:25;;;;;;;7.80;5.97;;;;;;;1.66;99.74;98336.06;1708342;82;21057;-78
2021/12/19 06:58:51;;;;;;;7.37;5.42;;;;;;;1.68;99.84;98338.59;1719335;82;21682;-78
2021/12/19 07:01:17;;;;;;;7.75;5.95;;;;;;;1.70;99.98;98335.55;1721861;82;21505;-78
2021/12/19 07:03:44;;;;;;;7.42;6.20;;;;;;;1.70;100.00;98329.15;1705700;83;21090;-78
2021/12/19 07:06:10;;;;;;;8.45;6.80;;;;;;;1.69;100.00;98326.18;1689727;82;21096;-78
2021/12/19 07:08:37;;;;;;;6.92;6.08;;;;;;;1.70;100.00;98308.64;1692465;82;20967;-78
2021/12/19 07:11:04;;;;;;;6.58;5.47;;;;;;;1.72;100.00;98305.16;1713499;82;21049;-78
2021/12/19 07:13:30;;;;;;;10.82;6.85;;;;;;;1.76;100.00;98307.66;1680238;84;21042;-78
2021/12/19 07:15:57;;;;;;;7.95;6.95;;;;;;;1.77;100.00;98298.66;1683701;82;21069;-77
2021/12/19 07:18:24;;;;;;;6.92;5.67;;;;;;;1.79;100.00;98295.61;1691460;83;21109;-77
2021/12/19 07:20:50;;;;;;;8.03;6.17;;;;;;;1.83;100.00;98307.89;1714443;82;21077;-78
2021/12/19 07:23:19;;;;;;;7.25;5.70;;;;;;;1.88;100.00;98289.39;1717397;83;20963;-78
2021/12/19 07:25:45;;;;;;;8.30;6.55;;;;;;;1.92;100.00;98285.87;1718545;83;20955;-78
2021/12/19 07:28:13;;;;;;;6.78;5.67;;;;;;;1.97;100.00;98279.76;1718252;83;21120;-78
2021/12/19 07:30:40;;;;;;;22.98;10.65;;;;;;;2.02;100.00;98269.36;1685690;83;21251;-77
2021/12/19 07:33:10;;;;;;;9.03;6.40;;;;;;;2.05;100.00;98266.27;1722465;82;21207;-78
2021/12/19 07:35:38;;;;;;;7.83;5.92;;;;;;;2.09;100.00;98269.61;1716517;82;21210;-78
2021/12/19 07:38:06;;;;;;;7.05;5.60;;;;;;;2.13;100.00;98260.95;1713760;82;21056;-77
2021/12/19 07:40:36;;;;;;;9.25;6.97;;;;;;;2.15;99.86;98264.32;1721189;82;20945;-78
2021/12/19 07:43:03;;;;;;;9.00;6.28;;;;;;;2.14;99.80;98272.90;1688456;83;20989;-77
2021/12/19 07:45:31;;;;;;;8.10;5.40;;;;;;;2.14;99.74;98245.12;1681525;83;21552;-77
2021/12/19 07:47:58;;;;;;;6.97;5.42;;;;;;;2.11;99.88;98237.06;1689995;82;21562;-77
2021/12/19 07:50:26;;;;;;;9.18;7.20;;;;;;;2.11;100.00;98219.11;1718487;82;21230;-77
2021/12/19 07:52:53;;;;;;;6.60;5.67;;;;;;;2.13;100.00;98220.36;1675427;83;21070;-78
2021/12/19 07:55:21;;;;;;;8.65;6.72;;;;;;;2.18;100.00;98196.27;1689639;83;21490;-77
2021/12/19 07:57:47;;;;;;;7.90;5.70;;;;;;;2.21;100.00;98194.87;1712655;82;21422;-77
2021/12/19 08:00:14;;;;;;;11.50;7.58;;;;;;;2.23;99.96;98184.12;1715791;82;21537;-77
2021/12/19 08:02:42;;;;;;;8.75;6.33;;;;;;;2.25;99.89;98191.78;1694361;83;21080;-77
2021/12/19 08:05:08;;;;;;;8.03;6.10;;;;;;;2.27;99.93;98189.58;1651342;85;21489;-78
2021/12/19 08:07:38;;;;;;;8.98;6.80;;;;;;;2.29;99.64;98188.25;1696024;83;21136;-77
2021/12/19 08:12:34;;;;;;;9.63;6.78;;;;;;;2.33;99.70;98171.45;1712830;83;21021;-77
2021/12/19 08:15:01;;;;;;;6.97;5.60;;;;;;;2.37;99.56;98165.80;1719237;82;21066;-78
2021/12/19 08:17:27;;;;;;;8.05;5.72;;;;;;;2.37;99.51;98166.63;1693015;83;20997;-78
2021/12/19 08:19:54;;;;;;;8.55;5.90;;;;;;;2.39;99.46;98170.44;1719947;82;21489;-78
2021/12/19 08:22:20;;;;;;;7.12;5.03;;;;;;;2.42;99.35;98177.58;1715366;82;21078;-78
2021/12/19 08:24:49;;;;;;;7.97;6.03;;;;;;;2.41;99.10;98183.59;1713816;83;20953;-77
2021/12/19 08:27:15;;;;;;;10.15;7.15;;;;;;;2.42;98.97;98192.13;1717093;82;21174;-78
2021/12/19 08:29:42;;;;;;;15.08;13.48;;;;;;;2.40;99.01;98181.91;1697961;83;21053;-77
2021/12/19 08:32:09;;;;;;;8.58;7.55;;;;;;;2.41;99.08;98183.59;1707662;83;21516;-78
2021/12/19 08:34:36;;;;;;;8.83;6.65;;;;;;;2.45;98.92;98171.52;1714484;83;21077;-78
2021/12/19 08:37:03;;;;;;;11.00;8.85;;;;;;;2.45;98.99;98162.53;1721965;82;21054;-78
2021/12/19 08:39:31;;;;;;;9.08;7.05;;;;;;;2.48;98.76;98161.61;1724399;82;21021;-77
2021/12/19 08:41:58;;;;;;;10.98;8.45;;;;;;;2.49;98.79;98162.85;1716407;83;20997;-78
2021/12/19 08:44:24;;;;;;;11.83;8.40;;;;;;;2.51;98.77;98167.94;1716447;82;21542;-78
2021/12/19 08:46:51;;;;;;;10.35;7.80;;;;;;;2.54;98.77;98162.72;1715341;82;20962;-78
2021/12/19 08:49:17;;;;;;;11.85;8.58;;;;;;;2.55;98.75;98153.69;1723702;83;21014;-77
2021/12/19 08:51:44;;;;;;;12.47;8.68;;;;;;;2.57;98.67;98142.10;1723963;83;21025;-77
2021/12/19 08:54:10;;;;;;;13.50;9.98;;;;;;;2.59;98.65;98136.48;1706647;83;21132;-78
2021/12/19 08:56:37;;;;;;;13.43;10.50;;;;;;;2.62;98.72;98138.92;1712625;83;21540;-77
2021/12/19 08:59:04;;;;;;;13.55;10.40;;;;;;;2.67;98.55;98135.78;1634277;86;21122;-77
2021/12/19 09:01:32;;;;;;;12.33;9.30;;;;;;;2.68;98.45;98140.03;1671546;85;21681;-77
2021/12/19 09:03:59;;;;;;;14.55;9.83;;;;;;;2.67;98.41;98126.35;1649319;85;21629;-77
2021/12/19 09:06:25;;;;;;;11.73;9.25;;;;;;;2.69;98.49;98126.31;1710173;83;21600;-78
2021/12/19 09:08:52;;;;;;;14.18;9.43;;;;;;;2.73;98.47;98110.77;1704867;83;21151;-77
2021/12/19 09:11:19;;;;;;;14.38;9.98;;;;;;;2.73;98.43;98099.66;1642699;86;20986;-77
2021/12/19 09:13:46;;;;;;;14.47;9.85;;;;;;;2.74;98.47;98091.91;1659719;85;21525;-77
2021/12/19 09:16:13;;;;;;;15.83;11.00;;;;;;;2.78;98.35;98097.79;1714545;82;21519;-77
2021/12/19 09:18:42;;;;;;;20.52;12.03;;;;;;;2.78;98.33;98099.52;1713067;83;21065;-77
2021/12/19 09:21:09;;;;;;;11.95;9.78;;;;;;;2.78;98.37;98100.36;1714316;83;21519;-78
2021/12/19 09:23:35;;;;;;;13.32;9.28;;;;;;;2.79;98.27;98099.91;1718158;83;20946;-77
2021/12/19 09:26:03;;;;;;;13.50;10.15;;;;;;;2.79;98.38;98099.47;1719838;83;21076;-77
2021/12/19 09:28:29;;;;;;;13.72;10.05;;;;;;;2.82;98.37;98107.49;1710977;83;21060;-77
2021/12/19 09:30:55;;;;;;;14.63;10.58;;;;;;;2.81;98.38;98098.11;1692957;83;20941;-77
2021/12/19 09:33:23;;;;;;;15.15;11.68;;;;;;;2.82;98.63;98092.92;1717620;82;21002;-77
2021/12/19 09:35:50;;;;;;;14.78;11.00;;;;;;;2.84;98.68;98081.33;1723340;82;21045;-77
2021/12/19 09:38:18;;;;;;;14.33;10.45;;;;;;;2.88;98.53;98067.05;1719140;82;21128;-77
2021/12/19 09:40:47;;;;;;;13.78;10.50;;;;;;;2.88;98.39;98059.80;1720662;82;21091;-77
2021/12/19 09:43:41;;;;;;;18.57;12.60;;;;;;;2.88;98.66;98048.24;1722119;83;21091;-78
2021/12/19 09:46:02;;;;;;;16.23;11.95;;;;;;;2.88;98.85;98039.25;1717590;82;21138;-78
2021/12/19 09:48:29;;;;;;;18.27;12.40;;;;;;;2.92;98.77;98043.41;1713941;82;20990;-77
2021/12/19 09:50:56;;;;;;;15.23;11.43;;;;;;;2.94;98.91;98035.20;1716687;82;20971;-78
2021/12/19 09:53:23;;;;;;;15.60;11.22;;;;;;;2.98;98.97;98035.06;1690441;83;20989;-77
2021/12/19 09:55:49;;;;;;;13.83;10.43;;;;;;;3.00;98.90;98034.53;1718204;82;21052;-77
2021/12/19 09:58:16;;;;;;;14.60;10.20;;;;;;;3.02;98.86;98042.19;1717747;83;21509;-78
2021/12/19 10:00:43;;;;;;;16.27;11.90;;;;;;;3.00;98.75;98033.25;1715362;83;21489;-78
2021/12/19 10:03:12;;;;;;;14.40;10.93;;;;;;;3.00;98.87;98029.40;1720301;83;21002;-78
2021/12/19 10:05:39;;;;;;;14.53;10.85;;;;;;;3.02;99.11;98030.19;1694782;82;20949;-78
2021/12/19 10:08:05;;;;;;;13.43;10.13;;;;;;;3.06;99.08;98018.09;1670541;84;20979;-78
2021/12/19 10:10:46;;;;;;;14.73;9.50;;;;;;;3.07;99.14;98003.91;1698619;83;22055;-79
2021/12/19 10:13:13;;;;;;;11.93;9.63;;;;;;;3.09;99.10;98000.00;1697429;83;21694;-79
2021/12/19 10:15:43;;;;;;;12.07;9.43;;;;;;;3.07;99.06;97992.34;1685367;83;21032;-80
2021/12/19 10:18:16;;;;;;;13.30;9.18;;;;;;;3.06;99.23;97989.83;1713905;83;20978;-79
2021/12/19 10:20:54;;;;;;;10.82;9.00;;;;;;;3.07;99.49;97983.80;1716516;82;20998;-78
2021/12/19 10:23:30;;;;;;;9.55;7.25;;;;;;;3.10;99.55;97990.13;1720801;81;21160;-78
2021/12/19 10:26:11;;;;;;;9.88;7.33;;;;;;;3.13;99.54;97974.60;1686001;84;20959;-79
2021/12/19 10:28:51;;;;;;;11.57;7.25;;;;;;;3.12;99.59;97975.50;1654920;85;21080;-79
2021/12/19 10:31:18;;;;;;;8.25;6.58;;;;;;;3.14;99.80;97969.86;1683083;83;21596;-79
2021/12/19 10:33:44;;;;;;;8.00;6.03;;;;;;;3.18;99.86;97964.17;1693067;83;21112;-78
2021/12/19 10:36:11;;;;;;;9.13;6.17;;;;;;;3.24;99.74;97945.95;1684273;83;21081;-79
2021/12/19 10:38:52;;;;;;;7.00;5.72;;;;;;;3.27;99.54;97941.54;1701519;83;21660;-79
2021/12/19 10:41:25;;;;;;;6.80;5.05;;;;;;;3.32;99.39;97929.81;1696598;83;21576;-78
2021/12/19 10:44:05;;;;;;;6.50;5.15;;;;;;;3.39;99.08;97910.72;1666699;85;21125;-79
2021/12/19 10:46:34;;;;;;;4.78;4.00;;;;;;;3.48;98.75;97917.23;1647896;85;21573;-78
2021/12/19 10:49:02;;;;;;;5.40;4.25;;;;;;;3.56;98.26;97913.92;1635176;86;21082;-79
2021/12/19 10:51:32;;;;;;;6.00;4.72;;;;;;;3.62;97.70;97902.94;1699610;82;20946;-78
2021/12/19 10:54:00;;;;;;;4.10;3.42;;;;;;;3.69;97.49;97903.55;1692890;83;20960;-78
2021/12/19 10:56:30;;;;;;;4.67;4.10;;;;;;;3.74;96.71;97890.08;1718832;82;21054;-78
2021/12/19 10:59:01;;;;;;;5.87;2.87;;;;;;;3.81;96.26;97888.92;1680599;83;20962;-78
2021/12/19 11:01:41;;;;;;;4.83;3.27;;;;;;;3.87;95.71;97877.11;1717122;82;21708;-78
2021/12/19 11:04:19;;;;;;;3.40;2.92;;;;;;;3.91;94.86;97865.81;1713750;82;22441;-76
2021/12/19 11:06:58;;;;;;;2.85;2.40;;;;;;;3.92;94.18;97861.05;1719863;82;21077;-77
2021/12/19 11:09:29;;;;;;;5.37;4.03;;;;;;;3.95;93.64;97868.66;1685684;83;20951;-79
2021/12/19 11:12:00;;;;;;;5.28;3.75;;;;;;;3.99;93.52;97859.92;1716271;82;21041;-77
2021/12/19 11:14:37;;;;;;;5.03;3.98;;;;;;;4.07;92.97;97866.86;1718387;83;22030;-80
2021/12/19 11:17:06;;;;;;;4.45;2.92;;;;;;;4.15;92.73;97860.95;1718458;82;21088;-79
2021/12/19 11:19:33;;;;;;;6.12;4.62;;;;;;;4.22;91.37;97850.39;1694799;83;21445;-79
2021/12/19 11:22:00;;;;;;;7.22;4.87;;;;;;;4.26;90.86;97856.64;1716654;82;20958;-80
2021/12/19 11:24:27;;;;;;;6.00;4.55;;;;;;;4.32;90.57;97843.97;1717059;83;20953;-80
2021/12/19 11:26:56;;;;;;;7.45;4.85;;;;;;;4.36;90.22;97841.66;1693681;82;21081;-80
2021/12/19 11:29:23;;;;;;;5.58;4.53;;;;;;;4.40;89.78;97837.58;1711042;82;20963;-79
2021/12/19 11:31:57;;;;;;;3.72;2.80;;;;;;;4.45;89.35;97837.39;1722567;82;20957;-77
2021/12/19 11:34:46;;;;;;;4.97;3.85;;;;;;;4.45;88.61;97833.53;1719222;82;21040;-79
2021/12/19 11:37:17;;;;;;;5.50;4.15;;;;;;;4.41;88.50;97822.97;1709144;83;21021;-79
2021/12/19 11:39:51;;;;;;;10.15;7.80;;;;;;;4.38;88.02;97816.70;1716960;83;21134;-78
2021/12/19 11:42:22;;;;;;;7.08;4.80;;;;;;;4.35;87.95;97820.69;1717781;82;20962;-78
2021/12/19 11:45:11;;;;;;;6.33;4.12;;;;;;;4.33;88.31;97818.17;1718725;82;21163;-77
2021/12/19 11:47:49;;;;;;;3.50;2.75;;;;;;;4.37;88.18;97815.02;1711098;83;20941;-78
2021/12/19 11:50:28;;;;;;;2.80;2.17;;;;;;;4.37;87.57;97800.42;1686884;82;21033;-78
2021/12/19 11:53:09;;;;;;;3.30;3.00;;;;;;;4.36;87.25;97793.59;1711858;83;21555;-78
2021/12/19 11:55:43;;;;;;;4.33;3.33;;;;;;;4.37;87.03;97793.98;1711496;83;21001;-78
2021/12/19 11:58:18;;;;;;;5.15;3.60;;;;;;;4.33;86.96;97793.72;1712263;83;21049;-77
2021/12/19 12:01:08;;;;;;;4.05;3.25;;;;;;;4.30;86.87;97787.41;1711490;82;21048;-77
2021/12/19 12:03:44;;;;;;;1.60;1.50;;;;;;;4.28;86.96;97787.09;1711187;82;21036;-78
2021/12/19 12:06:20;;;;;;;2.22;1.90;;;;;;;4.31;87.27;97777.50;1719518;82;22043;-78
2021/12/19 12:09:22;;;;;;;3.30;2.10;;;;;;;4.39;87.16;97769.47;1721604;82;21073;-77
2021/12/19 12:12:17;;;;;;;1.32;1.20;;;;;;;4.43;86.55;97780.83;1699903;83;21002;-77
2021/12/19 12:15:02;;;;;;;1.82;0.72;;;;;;;4.42;86.78;97762.87;1706734;82;21003;-77
2021/12/19 12:17:38;;;;;;;1.15;0.88;;;;;;;4.42;86.19;97778.31;1714655;82;21006;-78
2021/12/19 12:20:19;;;;;;;0.80;0.80;;;;;;;4.40;86.41;97770.66;1722994;82;21153;-78
2021/12/19 12:22:58;;;;;;;1.93;1.20;;;;;;;4.39;86.52;97747.59;1716750;82;21054;-77
2021/12/19 12:25:33;;;;;;;1.80;0.90;;;;;;;4.40;86.79;97758.23;1712993;82;21287;-77
2021/12/19 12:28:06;;;;;;;1.60;1.20;;;;;;;4.41;86.63;97763.31;1714352;83;20950;-78
2021/12/19 12:30:42;;;;;;;2.45;1.15;;;;;;;4.45;86.75;97757.59;1709988;82;21457;-77
2021/12/19 12:33:14;;;;;;;1.02;0.90;;;;;;;4.48;86.32;97748.45;1679759;83;21140;-76
2021/12/19 12:35:45;;;;;;;1.35;1.07;;;;;;;4.52;86.13;97755.14;1716453;82;22121;-78
2021/12/19 12:38:12;;;;;;;0.90;0.70;;;;;;;4.53;86.24;97761.13;1708880;83;21045;-78
2021/12/19 12:40:50;;;;;;;1.50;1.05;;;;;;;4.53;86.24;97758.09;1716910;83;20993;-78
2021/12/19 12:43:31;;;;;;;1.32;1.00;;;;;;;4.52;86.36;97751.73;1706621;83;21049;-77
2021/12/19 12:46:19;;;;;;;0.75;0.50;;;;;;;4.52;86.21;97746.13;1715977;82;21781;-77
2021/12/19 12:49:01;;;;;;;1.07;0.98;;;;;;;4.47;86.41;97754.05;1708227;83;21042;-77
2021/12/19 12:51:49;;;;;;;1.40;1.07;;;;;;;4.45;86.70;97764.02;1691881;83;21112;-77
2021/12/19 12:54:21;;;;;;;1.35;1.10;;;;;;;4.44;86.64;97755.91;1716586;82;21095;-77